Time;durP1;ratioP1;P1;durP2;ratioP2;P2;SDS_P1;SDS_P2;PMS_P1;PMS_P2;Temp;Humidity;BMP_temperature;BMP_pressure;BME280_temperature;BME280_humidity;BME280_pressure;Samples;Min_cycle;Max_cycle;Signal;HPM_P1;HPM_P2
2023/07/05 00:01:46;;;;;;;2.55;1.35;;;;;;;19.98;100.00;99567.13;5081916;28;20511;-65
2023/07/05 00:04:11;;;;;;;3.75;1.40;;;;;;;20.05;100.00;99581.00;5078284;28;20107;-65
2023/07/05 00:06:36;;;;;;;2.92;1.75;;;;;;;20.04;100.00;99571.16;5070705;28;20025;-65
2023/07/05 00:09:02;;;;;;;8.70;1.85;;;;;;;19.98;100.00;99575.22;5070285;28;20028;-65
2023/07/05 00:11:27;;;;;;;4.60;1.73;;;;;;;19.96;100.00;99577.19;5077796;28;20035;-65
2023/07/05 00:13:53;;;;;;;3.20;2.03;;;;;;;19.98;100.00;99572.53;5079218;28;20027;-65
2023/07/05 00:16:20;;;;;;;6.88;2.65;;;;;;;20.01;100.00;99574.13;5079366;28;20052;-65
2023/07/05 00:18:46;;;;;;;6.97;2.17;;;;;;;20.04;100.00;99565.78;5090338;28;20510;-65
2023/07/05 00:21:12;;;;;;;4.07;1.77;;;;;;;20.06;100.00;99569.22;5090561;28;20031;-65
2023/07/05 00:23:38;;;;;;;5.80;1.95;;;;;;;20.09;100.00;99569.84;5090993;28;20024;-65
2023/07/05 00:26:06;;;;;;;9.30;1.55;;;;;;;20.12;100.00;99569.59;5087843;28;20447;-65
2023/07/05 00:28:34;;;;;;;5.78;1.67;;;;;;;20.10;100.00;99584.22;5078520;28;20031;-65
2023/07/05 00:31:03;;;;;;;2.85;1.45;;;;;;;20.10;100.00;99582.34;5076697;28;20055;-65
2023/07/05 00:33:29;;;;;;;4.13;1.65;;;;;;;20.12;100.00;99590.31;5083401;28;20745;-64
2023/07/05 00:35:55;;;;;;;5.20;1.50;;;;;;;20.13;100.00;99589.38;5071589;28;20024;-64
2023/07/05 00:38:21;;;;;;;7.72;2.33;;;;;;;20.16;100.00;99587.31;5070865;28;20132;-64
2023/07/05 00:40:47;;;;;;;4.70;1.67;;;;;;;20.17;100.00;99577.34;5081537;28;20054;-64
2023/07/05 00:43:14;;;;;;;6.28;2.08;;;;;;;20.18;100.00;99581.81;5090403;28;20022;-65
2023/07/05 00:46:04;;;;;;;5.60;1.98;;;;;;;20.14;100.00;99570.34;5089244;28;20045;-65
2023/07/05 00:48:35;;;;;;;6.90;1.92;;;;;;;20.13;100.00;99575.88;5089208;28;20292;-65
2023/07/05 00:51:05;;;;;;;6.25;1.75;;;;;;;20.12;100.00;99587.63;5089198;28;20799;-65
2023/07/05 00:53:33;;;;;;;4.25;1.85;;;;;;;20.08;100.00;99557.31;5089282;28;20097;-65
2023/07/05 00:56:10;;;;;;;5.32;1.80;;;;;;;19.83;100.00;99544.03;5088254;28;20058;-65
2023/07/05 00:58:36;;;;;;;6.53;2.25;;;;;;;19.88;100.00;99581.44;5089430;28;20032;-65
2023/07/05 01:01:01;;;;;;;2.65;1.48;;;;;;;19.83;100.00;99600.72;5088247;28;20219;-65
2023/07/05 01:03:27;;;;;;;6.18;1.50;;;;;;;19.89;100.00;99600.22;5088280;28;20040;-65
2023/07/05 01:05:57;;;;;;;6.68;1.80;;;;;;;19.91;100.00;99598.28;5090279;28;20546;-65
2023/07/05 01:08:23;;;;;;;6.20;1.88;;;;;;;19.91;100.00;99592.00;5090087;28;20024;-65
2023/07/05 01:10:58;;;;;;;3.83;1.30;;;;;;;19.96;100.00;99604.19;5088338;28;20495;-65
2023/07/05 01:14:01;;;;;;;4.60;1.77;;;;;;;19.99;100.00;99613.88;5089272;28;20463;-65
2023/07/05 01:16:33;;;;;;;5.17;1.73;;;;;;;20.04;100.00;99609.84;5070319;28;20796;-65
2023/07/05 01:19:56;;;;;;;5.40;2.00;;;;;;;20.10;100.00;99593.16;5086898;28;20031;-64
2023/07/05 01:22:33;;;;;;;3.88;1.30;;;;;;;20.06;100.00;99591.69;5004226;28;20048;-64
2023/07/05 01:25:24;;;;;;;7.70;1.70;;;;;;;19.99;100.00;99573.38;5076118;28;20059;-63
2023/07/05 01:28:11;;;;;;;2.63;1.40;;;;;;;19.91;100.00;99571.28;5086838;28;20020;-63
2023/07/05 01:31:04;;;;;;;7.03;1.77;;;;;;;19.83;100.00;99570.16;5081654;28;20111;-63
2023/07/05 01:33:38;;;;;;;2.47;1.57;;;;;;;19.88;100.00;99566.13;5088830;28;20537;-63
2023/07/05 01:36:05;;;;;;;2.80;1.52;;;;;;;19.87;100.00;99580.59;5087972;28;20024;-63
2023/07/05 01:38:31;;;;;;;5.35;1.92;;;;;;;19.75;100.00;99577.97;5088320;28;20119;-63
2023/07/05 01:41:02;;;;;;;2.70;1.48;;;;;;;19.79;100.00;99604.59;5088206;28;20119;-63
2023/07/05 01:43:31;;;;;;;2.60;1.33;;;;;;;19.77;100.00;99601.16;5070278;28;20025;-63
2023/07/05 01:46:12;;;;;;;3.35;1.45;;;;;;;19.77;100.00;99603.03;5068595;28;20028;-63
2023/07/05 01:48:58;;;;;;;11.48;2.15;;;;;;;19.75;100.00;99591.47;5068410;28;20063;-63
2023/07/05 01:51:39;;;;;;;4.35;2.05;;;;;;;19.82;100.00;99588.16;5080604;28;20756;-63
2023/07/05 01:54:10;;;;;;;4.10;2.08;;;;;;;19.87;100.00;99593.25;5073751;28;20490;-63
2023/07/05 01:56:42;;;;;;;4.03;1.75;;;;;;;19.89;100.00;99594.81;5088791;28;20036;-63
2023/07/05 01:59:11;;;;;;;4.28;2.30;;;;;;;19.98;100.00;99588.72;5069322;28;20174;-63
2023/07/05 02:01:38;;;;;;;3.22;1.83;;;;;;;19.92;100.00;99583.78;5087778;28;20093;-62
2023/07/05 02:04:06;;;;;;;5.53;1.65;;;;;;;20.00;100.00;99599.41;5077056;28;20480;-62
2023/07/05 02:06:34;;;;;;;5.13;1.75;;;;;;;20.00;100.00;99584.03;5075344;28;20020;-61
2023/07/05 02:08:59;;;;;;;4.03;1.90;;;;;;;20.05;100.00;99584.53;5068229;28;20115;-61
2023/07/05 02:11:24;;;;;;;4.05;1.67;;;;;;;20.05;100.00;99587.25;5068158;28;20042;-61
2023/07/05 02:13:50;;;;;;;4.88;2.08;;;;;;;19.98;100.00;99580.63;5075095;28;20040;-62
2023/07/05 02:16:15;;;;;;;7.13;2.25;;;;;;;20.02;100.00;99584.78;5084964;28;20099;-62
2023/07/05 02:18:40;;;;;;;4.45;2.42;;;;;;;20.07;100.00;99571.78;5069797;28;20758;-61
2023/07/05 02:21:10;;;;;;;4.68;1.80;;;;;;;20.07;100.00;99579.03;5086522;28;20531;-62
2023/07/05 02:23:36;;;;;;;4.72;2.08;;;;;;;20.06;100.00;99567.38;5089337;28;20081;-61
2023/07/05 02:26:04;;;;;;;3.10;1.80;;;;;;;20.04;100.00;99568.47;5072985;28;20020;-61
2023/07/05 02:28:30;;;;;;;4.07;2.33;;;;;;;20.04;100.00;99566.63;5069006;28;20081;-61
2023/07/05 02:30:56;;;;;;;2.75;1.70;;;;;;;20.03;100.00;99564.91;5074391;28;20028;-61
2023/07/05 02:33:21;;;;;;;4.93;1.52;;;;;;;20.09;100.00;99575.25;5073445;28;20021;-61
2023/07/05 02:35:48;;;;;;;3.60;1.80;;;;;;;20.04;100.00;99574.75;5081002;28;20028;-62
2023/07/05 02:38:14;;;;;;;6.03;2.10;;;;;;;20.04;100.00;99561.25;5071959;28;20513;-61
2023/07/05 02:40:39;;;;;;;4.65;1.90;;;;;;;20.07;100.00;99561.00;5080550;28;20024;-62
2023/07/05 02:43:04;;;;;;;5.93;1.83;;;;;;;19.93;100.00;99561.22;5074001;28;20031;-61
2023/07/05 02:45:32;;;;;;;4.25;1.60;;;;;;;19.95;100.00;99561.09;5077887;28;20029;-61
2023/07/05 02:47:57;;;;;;;2.38;1.30;;;;;;;19.98;100.00;99561.72;5073709;28;20039;-61
2023/07/05 02:50:23;;;;;;;2.85;1.70;;;;;;;19.93;100.00;99552.25;5075522;28;20012;-61
2023/07/05 02:52:48;;;;;;;2.88;1.40;;;;;;;19.99;100.00;99551.78;5072343;28;20020;-61
2023/07/05 02:55:14;;;;;;;2.38;1.30;;;;;;;20.05;100.00;99551.31;5074088;28;20025;-61
2023/07/05 02:57:39;;;;;;;2.33;1.35;;;;;;;20.04;100.00;99555.84;5086182;28;20130;-61
2023/07/05 03:00:06;;;;;;;4.18;1.60;;;;;;;20.07;100.00;99563.69;5074023;28;20032;-60
2023/07/05 03:02:32;;;;;;;3.55;1.70;;;;;;;20.06;100.00;99558.41;5072666;28;20044;-61
2023/07/05 03:04:57;;;;;;;4.60;2.15;;;;;;;20.08;100.00;99557.31;5077680;28;20097;-60
2023/07/05 03:07:23;;;;;;;3.88;1.80;;;;;;;20.11;100.00;99554.38;5072544;28;20063;-61
2023/07/05 03:09:48;;;;;;;3.85;1.60;;;;;;;20.10;100.00;99571.56;5071895;28;20099;-60
2023/07/05 03:12:17;;;;;;;3.58;1.40;;;;;;;20.11;100.00;99567.03;5079068;28;20082;-61
2023/07/05 03:14:43;;;;;;;4.38;1.73;;;;;;;20.13;100.00;99565.06;5072591;28;20024;-61
2023/07/05 03:17:08;;;;;;;14.35;1.77;;;;;;;20.12;100.00;99569.59;5079906;28;20050;-61
2023/07/05 03:19:34;;;;;;;6.10;2.42;;;;;;;20.12;100.00;99572.28;5074213;28;20464;-61
2023/07/05 03:21:59;;;;;;;2.65;1.67;;;;;;;20.09;100.00;99560.88;5078587;28;20051;-61
2023/07/05 03:24:25;;;;;;;14.48;2.15;;;;;;;20.18;100.00;99565.59;5080853;28;20028;-61
2023/07/05 03:26:53;;;;;;;10.73;1.98;;;;;;;20.19;100.00;99564.59;5072164;28;20067;-61
2023/07/05 03:29:18;;;;;;;2.55;1.38;;;;;;;20.21;100.00;99563.53;5083485;28;20026;-61
2023/07/05 03:31:44;;;;;;;2.80;1.17;;;;;;;20.23;100.00;99566.94;5075436;28;20434;-61
2023/07/05 03:34:09;;;;;;;7.63;1.80;;;;;;;20.25;100.00;99564.09;5085448;28;20032;-62
2023/07/05 03:36:35;;;;;;;7.05;1.95;;;;;;;20.25;100.00;99564.97;5088028;28;20476;-61
2023/07/05 03:39:00;;;;;;;4.10;1.40;;;;;;;20.25;100.00;99554.16;5070870;28;20033;-61
2023/07/05 03:41:26;;;;;;;2.60;1.50;;;;;;;20.22;100.00;99565.22;5078335;28;20028;-62
2023/07/05 03:43:58;;;;;;;2.95;1.30;;;;;;;20.18;100.00;99546.69;5071654;28;20052;-61
2023/07/05 03:46:24;;;;;;;3.72;1.40;;;;;;;20.12;100.00;99548.00;5072595;28;20473;-62
2023/07/05 03:48:50;;;;;;;3.63;1.20;;;;;;;20.16;100.00;99554.91;5090550;28;20127;-61
2023/07/05 03:51:22;;;;;;;3.92;1.35;;;;;;;20.11;100.00;99545.41;5085458;28;20028;-61
2023/07/05 03:53:52;;;;;;;2.72;1.40;;;;;;;20.16;100.00;99549.50;5068612;28;20024;-62
2023/07/05 03:56:17;;;;;;;3.88;1.40;;;;;;;20.14;100.00;99547.88;5081756;28;20038;-62
2023/07/05 03:58:43;;;;;;;4.10;1.30;;;;;;;20.12;100.00;99552.53;5069789;28;20017;-62
2023/07/05 04:01:15;;;;;;;3.22;1.40;;;;;;;20.14;100.00;99550.56;5075019;28;20166;-62
2023/07/05 04:03:44;;;;;;;5.20;2.65;;;;;;;20.17;100.00;99551.22;5080280;28;20024;-62
2023/07/05 04:06:11;;;;;;;2.67;1.48;;;;;;;20.16;100.00;99544.13;5087711;28;20077;-61
2023/07/05 04:08:36;;;;;;;3.00;1.40;;;;;;;20.24;100.00;99551.59;5071513;28;20031;-61
2023/07/05 04:11:01;;;;;;;2.03;1.23;;;;;;;20.32;100.00;99550.00;5076332;28;20114;-62
2023/07/05 04:13:27;;;;;;;3.42;1.77;;;;;;;20.38;100.00;99549.50;5071110;28;20021;-62
2023/07/05 04:16:00;;;;;;;3.92;1.70;;;;;;;20.41;99.84;99546.56;5076503;28;20085;-62
2023/07/05 04:18:31;;;;;;;2.25;1.35;;;;;;;20.47;99.10;99546.09;5090725;28;20155;-62
2023/07/05 04:20:56;;;;;;;2.40;0.98;;;;;;;20.51;98.81;99547.53;5090278;28;20040;-62
2023/07/05 04:23:22;;;;;;;2.47;1.40;;;;;;;20.56;98.33;99539.09;5088749;28;20039;-62
2023/07/05 04:25:48;;;;;;;3.22;1.40;;;;;;;20.57;98.61;99548.91;5087292;28;20178;-63
2023/07/05 04:28:13;;;;;;;2.15;1.33;;;;;;;20.57;97.81;99544.38;5088551;28;20024;-63
2023/07/05 04:30:39;;;;;;;9.00;1.63;;;;;;;20.65;97.96;99546.44;5069496;28;20024;-62
2023/07/05 04:33:04;;;;;;;2.67;1.50;;;;;;;20.61;98.39;99570.13;5070015;28;20459;-62
2023/07/05 04:35:30;;;;;;;8.25;1.75;;;;;;;20.62;99.32;99619.66;5080437;28;20476;-62
2023/07/05 04:37:55;;;;;;;6.43;1.70;;;;;;;20.51;100.00;99607.00;5077769;28;20035;-63
2023/07/05 04:40:22;;;;;;;4.90;1.70;;;;;;;20.43;100.00;99611.28;5088150;28;20039;-68
2023/07/05 04:42:47;;;;;;;6.78;1.50;;;;;;;20.23;100.00;99614.72;5091580;28;20024;-67
2023/07/05 04:45:13;;;;;;;7.47;1.83;;;;;;;20.20;100.00;99621.19;5074714;28;20031;-67
2023/07/05 04:47:38;;;;;;;4.60;1.80;;;;;;;20.12;100.00;99633.53;5067694;28;20036;-67
2023/07/05 04:50:04;;;;;;;7.90;2.10;;;;;;;20.11;100.00;99638.09;5082649;28;20039;-67
2023/07/05 04:52:30;;;;;;;4.43;1.80;;;;;;;20.05;100.00;99633.16;5056882;28;20077;-68
2023/07/05 04:54:55;;;;;;;3.80;1.88;;;;;;;19.99;100.00;99636.34;5079788;28;20028;-68
2023/07/05 04:57:20;;;;;;;3.20;2.10;;;;;;;19.99;100.00;99639.03;5078923;28;20044;-74
2023/07/05 04:59:46;;;;;;;4.03;1.80;;;;;;;19.97;100.00;99641.00;5085413;28;20028;-69
2023/07/05 05:02:11;;;;;;;3.70;1.88;;;;;;;19.97;100.00;99641.00;5075112;28;20401;-68
2023/07/05 05:04:37;;;;;;;5.25;1.65;;;;;;;19.99;100.00;99638.16;5072621;28;20115;-68
2023/07/05 05:07:05;;;;;;;4.30;1.75;;;;;;;19.99;100.00;99641.75;5075918;28;20032;-68
2023/07/05 05:09:30;;;;;;;2.90;1.85;;;;;;;20.03;100.00;99653.16;5053007;28;20036;-69
2023/07/05 05:11:56;;;;;;;2.75;1.50;;;;;;;19.98;100.00;99649.97;5069766;28;20796;-69
2023/07/05 05:14:21;;;;;;;5.45;1.85;;;;;;;19.99;100.00;99660.63;5085865;28;20016;-69
2023/07/05 05:16:46;;;;;;;3.83;1.50;;;;;;;20.05;100.00;99662.84;5087709;28;20031;-69
2023/07/05 05:19:12;;;;;;;2.42;1.20;;;;;;;20.06;100.00;99661.91;5086917;28;20398;-69
2023/07/05 05:21:37;;;;;;;4.03;1.60;;;;;;;20.20;100.00;99663.53;5085946;28;20039;-69
2023/07/05 05:24:03;;;;;;;2.83;1.40;;;;;;;20.39;100.00;99675.53;5088902;28;20103;-69
2023/07/05 05:26:28;;;;;;;2.67;0.95;;;;;;;20.58;100.00;99675.78;5086442;28;20473;-69
2023/07/05 05:28:53;;;;;;;2.30;1.10;;;;;;;20.73;100.00;99685.41;5068550;28;20120;-69
2023/07/05 05:31:19;;;;;;;3.63;1.63;;;;;;;20.62;100.00;99677.28;5086116;28;20024;-69
2023/07/05 05:33:46;;;;;;;4.55;1.40;;;;;;;20.52;100.00;99675.41;5072710;28;20023;-69
2023/07/05 05:36:11;;;;;;;2.70;1.20;;;;;;;20.51;100.00;99693.47;5069482;28;20060;-68
2023/07/05 05:38:37;;;;;;;2.42;1.05;;;;;;;20.45;100.00;99709.28;5068640;28;20028;-68
2023/07/05 05:41:04;;;;;;;4.45;1.23;;;;;;;20.37;100.00;99709.91;5073591;28;20086;-69
2023/07/05 05:43:30;;;;;;;3.53;1.20;;;;;;;20.33;100.00;99713.81;5069165;28;20122;-68
2023/07/05 05:45:56;;;;;;;3.10;1.27;;;;;;;20.22;100.00;99724.59;5080098;28;20488;-68
2023/07/05 05:48:21;;;;;;;2.97;1.13;;;;;;;20.00;100.00;99739.81;5078030;28;20085;-67
2023/07/05 05:50:47;;;;;;;2.33;1.20;;;;;;;19.81;100.00;99737.63;5084690;28;20401;-68
2023/07/05 05:53:13;;;;;;;3.83;1.40;;;;;;;19.66;100.00;99744.16;5072992;28;20020;-67
2023/07/05 05:55:39;;;;;;;3.28;1.30;;;;;;;19.42;100.00;99740.56;5067946;28;20051;-67
2023/07/05 05:58:06;;;;;;;3.60;1.52;;;;;;;19.41;100.00;99750.50;5073124;28;20320;-67
2023/07/05 06:00:32;;;;;;;3.38;1.02;;;;;;;19.34;100.00;99754.59;5067749;28;20028;-68
2023/07/05 06:02:58;;;;;;;2.88;1.17;;;;;;;19.17;100.00;99754.94;5082176;28;20036;-68
2023/07/05 06:05:23;;;;;;;5.15;2.00;;;;;;;19.10;100.00;99755.47;5087274;28;20080;-67
2023/07/05 06:07:49;;;;;;;3.25;1.20;;;;;;;19.06;99.50;99754.81;5077489;28;20043;-68
2023/07/05 06:10:14;;;;;;;2.65;1.40;;;;;;;18.95;99.63;99764.63;5069456;28;20039;-67
2023/07/05 06:12:43;;;;;;;4.82;2.15;;;;;;;18.91;99.46;99771.22;5069389;28;20577;-67
2023/07/05 06:15:13;;;;;;;3.63;1.73;;;;;;;19.02;100.00;99779.41;5069227;28;20039;-67
2023/07/05 06:17:39;;;;;;;4.68;1.55;;;;;;;19.18;100.00;99778.22;5078330;28;20506;-67
2023/07/05 06:20:06;;;;;;;4.25;1.75;;;;;;;19.23;99.83;99767.09;5084176;28;20358;-67
2023/07/05 06:22:32;;;;;;;5.05;1.77;;;;;;;19.42;98.91;99794.53;5071664;28;20041;-67
2023/07/05 06:24:58;;;;;;;3.60;1.50;;;;;;;19.40;98.24;99794.63;5072986;28;20024;-67
2023/07/05 06:27:23;;;;;;;3.78;1.83;;;;;;;19.51;98.12;99799.22;5069067;28;20740;-67
2023/07/05 06:29:49;;;;;;;4.20;1.50;;;;;;;19.60;97.68;99798.59;5066780;28;20107;-68
2023/07/05 06:32:14;;;;;;;4.05;1.98;;;;;;;19.56;97.20;99803.34;5076617;28;20025;-68
2023/07/05 06:34:39;;;;;;;3.05;1.58;;;;;;;19.52;96.61;99800.97;5081907;28;20052;-67
2023/07/05 06:37:05;;;;;;;4.18;1.90;;;;;;;19.49;96.80;99814.66;5072871;28;20032;-68
2023/07/05 06:39:30;;;;;;;4.10;1.90;;;;;;;19.55;97.41;99811.53;5070717;28;20039;-68
2023/07/05 06:41:56;;;;;;;5.60;2.38;;;;;;;19.58;97.63;99825.69;5086680;28;20028;-68
2023/07/05 06:44:21;;;;;;;6.05;2.00;;;;;;;19.59;97.88;99823.81;5081597;28;20071;-68
2023/07/05 06:46:46;;;;;;;5.13;1.77;;;;;;;19.61;97.37;99821.88;5070068;28;20067;-68
2023/07/05 06:49:12;;;;;;;4.20;2.33;;;;;;;19.56;96.15;99827.63;5075610;28;20028;-68
2023/07/05 06:51:37;;;;;;;5.65;2.47;;;;;;;19.61;96.12;99832.69;5069937;28;20115;-68
2023/07/05 06:54:03;;;;;;;5.93;1.85;;;;;;;19.90;95.33;99841.38;5068497;28;20032;-68
2023/07/05 06:56:28;;;;;;;6.45;2.00;;;;;;;20.16;93.63;99846.59;5075347;28;20031;-68
2023/07/05 06:58:54;;;;;;;5.20;1.95;;;;;;;20.37;92.55;99844.13;5068821;28;20111;-68
2023/07/05 07:01:19;;;;;;;5.40;2.03;;;;;;;20.46;90.47;99849.69;5071807;28;20053;-68
2023/07/05 07:03:45;;;;;;;4.63;2.08;;;;;;;20.80;90.29;99862.38;5069216;28;20028;-68
2023/07/05 07:06:11;;;;;;;5.20;2.17;;;;;;;20.94;88.66;99856.75;5068868;28;20032;-68
2023/07/05 07:08:38;;;;;;;4.57;2.20;;;;;;;21.08;85.06;99862.97;5072013;28;20473;-68
2023/07/05 07:11:06;;;;;;;4.55;1.90;;;;;;;21.01;81.97;99856.28;5050448;28;20086;-67
2023/07/05 07:13:33;;;;;;;5.07;2.90;;;;;;;21.26;83.86;99859.69;5072486;28;20415;-67
2023/07/05 07:16:03;;;;;;;4.53;1.92;;;;;;;21.47;83.13;99859.81;5068031;28;20044;-68
2023/07/05 07:18:29;;;;;;;4.80;2.25;;;;;;;21.45;81.68;99869.94;5069602;28;20892;-68
2023/07/05 07:20:55;;;;;;;4.78;2.28;;;;;;;21.52;80.17;99881.97;5069566;28;20116;-67
2023/07/05 07:23:22;;;;;;;4.57;2.25;;;;;;;21.64;79.54;99870.16;5087443;28;20131;-68
2023/07/05 07:26:04;;;;;;;4.65;2.05;;;;;;;21.98;79.44;99875.47;5084028;28;20035;-68
2023/07/05 07:28:30;;;;;;;3.67;2.08;;;;;;;22.12;80.26;99885.19;5071180;28;20034;-68
2023/07/05 07:30:57;;;;;;;4.43;1.95;;;;;;;22.19;74.02;99884.56;5076327;28;20025;-68
2023/07/05 07:33:23;;;;;;;5.80;2.20;;;;;;;21.98;74.71;99883.59;5077495;28;20011;-68
2023/07/05 07:35:49;;;;;;;4.80;2.20;;;;;;;21.98;71.92;99893.56;5073986;28;20029;-67
2023/07/05 07:38:15;;;;;;;5.78;2.35;;;;;;;22.05;71.76;99883.97;5072293;28;20043;-68
2023/07/05 07:40:41;;;;;;;4.30;1.80;;;;;;;22.34;69.04;99895.97;5086205;28;20518;-68
2023/07/05 07:43:07;;;;;;;5.70;2.20;;;;;;;22.56;66.78;99890.53;5068724;28;20115;-67
2023/07/05 07:45:33;;;;;;;4.55;2.20;;;;;;;22.72;66.34;99890.97;5070892;28;20447;-68
2023/07/05 07:47:58;;;;;;;4.72;2.50;;;;;;;23.10;68.39;99887.69;5068332;28;20097;-68
2023/07/05 07:50:25;;;;;;;6.18;2.78;;;;;;;23.38;65.43;99900.63;5084932;28;20449;-68
2023/07/05 07:52:50;;;;;;;5.93;2.40;;;;;;;23.31;59.64;99905.72;5070368;28;20033;-67
2023/07/05 07:55:16;;;;;;;5.22;2.50;;;;;;;23.53;61.47;99898.44;5076709;28;20032;-67
2023/07/05 07:57:41;;;;;;;5.40;2.30;;;;;;;23.54;59.52;99911.03;5073159;28;20045;-68
2023/07/05 08:00:10;;;;;;;7.18;2.30;;;;;;;23.70;60.10;99920.41;5073456;28;20059;-67
2023/07/05 08:02:36;;;;;;;4.90;2.35;;;;;;;23.63;60.68;99926.50;5071637;28;20143;-67
2023/07/05 08:05:02;;;;;;;4.78;2.28;;;;;;;24.22;60.54;99933.81;5071573;28;20028;-66
2023/07/05 08:07:27;;;;;;;4.40;1.52;;;;;;;24.00;50.71;99935.91;5072014;28;20115;-67
2023/07/05 08:09:55;;;;;;;5.32;2.00;;;;;;;23.76;51.79;99938.00;5082048;28;20726;-67
2023/07/05 08:12:21;;;;;;;4.30;1.75;;;;;;;23.81;51.29;99938.47;5058673;28;20036;-67
2023/07/05 08:14:46;;;;;;;7.70;2.40;;;;;;;23.85;50.24;99948.09;5054379;28;20028;-67
2023/07/05 08:17:12;;;;;;;4.32;1.98;;;;;;;23.85;48.36;99957.09;5073540;28;20033;-67
2023/07/05 08:19:37;;;;;;;5.35;2.22;;;;;;;24.03;50.38;99949.22;5069589;28;20025;-67
2023/07/05 08:22:03;;;;;;;9.10;1.90;;;;;;;24.09;47.55;99962.25;5079076;28;20024;-68
2023/07/05 08:24:29;;;;;;;3.05;1.50;;;;;;;23.73;48.45;99954.59;5068812;28;20381;-70
2023/07/05 08:26:55;;;;;;;3.83;1.60;;;;;;;23.79;49.19;99962.22;5071162;28;20027;-69
2023/07/05 08:29:22;;;;;;;3.67;1.60;;;;;;;23.91;49.21;99969.28;5055386;28;20123;-69
2023/07/05 08:31:48;;;;;;;4.20;1.90;;;;;;;23.94;50.32;99969.88;5070477;28;20101;-71
2023/07/05 08:34:14;;;;;;;4.57;1.50;;;;;;;23.85;48.16;99964.38;5081072;28;20024;-64
2023/07/05 08:36:42;;;;;;;5.80;2.03;;;;;;;23.65;49.83;99971.56;5086951;28;20039;-64
2023/07/05 08:39:08;;;;;;;3.40;1.50;;;;;;;23.72;49.66;99986.34;5077539;28;20024;-64
2023/07/05 08:41:41;;;;;;;3.13;1.40;;;;;;;24.18;48.84;99980.47;5085139;28;20028;-66
2023/07/05 08:44:43;;;;;;;4.88;1.85;;;;;;;24.29;49.82;99985.78;5083626;28;20035;-68
2023/07/05 08:47:11;;;;;;;6.72;1.50;;;;;;;24.06;49.62;99979.69;5069038;28;20051;-66
2023/07/05 08:49:39;;;;;;;4.35;1.40;;;;;;;24.06;47.63;99990.56;5069580;28;20535;-66
2023/07/05 08:52:11;;;;;;;3.50;1.17;;;;;;;24.02;49.28;99986.38;5072400;28;20047;-66
2023/07/05 08:54:40;;;;;;;5.10;1.65;;;;;;;24.10;47.23;99966.69;5070798;28;20020;-66
2023/07/05 08:57:19;;;;;;;4.28;1.33;;;;;;;24.74;46.38;99994.41;5073577;28;20024;-66
2023/07/05 08:59:54;;;;;;;3.17;1.52;;;;;;;25.24;44.18;100002.34;5070230;28;20028;-67
2023/07/05 09:02:20;;;;;;;3.33;1.30;;;;;;;24.76;44.17;99995.16;5071088;28;20138;-67
2023/07/05 09:04:47;;;;;;;2.17;1.45;;;;;;;24.61;44.63;99997.38;5072472;28;20634;-66
2023/07/05 09:07:32;;;;;;;4.32;1.30;;;;;;;25.00;45.64;99995.59;5069345;28;20111;-67
2023/07/05 09:10:09;;;;;;;3.58;1.30;;;;;;;24.92;44.69;100003.63;5075286;28;20031;-66
2023/07/05 09:12:48;;;;;;;3.20;1.60;;;;;;;24.73;43.89;99996.25;5068506;28;20040;-66
2023/07/05 09:15:42;;;;;;;3.20;1.10;;;;;;;24.94;44.46;99999.78;5070252;28;20024;-65
2023/07/05 09:18:20;;;;;;;3.28;1.20;;;;;;;25.47;44.13;99998.38;5066568;28;20032;-65
2023/07/05 09:20:48;;;;;;;3.40;1.15;;;;;;;25.83;45.56;100005.78;5078686;28;20135;-66
2023/07/05 09:23:48;;;;;;;3.50;1.50;;;;;;;25.34;44.44;100003.22;5069418;28;20368;-65
2023/07/05 09:26:34;;;;;;;3.50;1.25;;;;;;;25.01;44.33;100003.63;5068829;28;20384;-66
2023/07/05 09:29:21;;;;;;;3.08;1.20;;;;;;;24.67;47.10;100007.69;5075913;28;20504;-66
2023/07/05 09:31:49;;;;;;;3.38;1.40;;;;;;;24.21;45.51;100016.41;5068723;28;20053;-66
2023/07/05 09:34:18;;;;;;;4.35;1.38;;;;;;;24.45;44.94;100019.63;5069143;28;20442;-66
2023/07/05 09:36:45;;;;;;;6.57;1.50;;;;;;;25.05;44.69;100015.97;5068623;28;20066;-66
2023/07/05 09:39:35;;;;;;;3.90;1.23;;;;;;;25.55;44.59;100023.03;5069736;28;20028;-66
2023/07/05 09:42:04;;;;;;;4.55;1.42;;;;;;;25.37;42.34;100019.31;5080930;28;20046;-65
2023/07/05 09:44:30;;;;;;;5.50;1.55;;;;;;;25.17;44.34;100020.25;5072649;28;20044;-65
2023/07/05 09:46:56;;;;;;;4.70;1.25;;;;;;;25.14;44.35;100034.16;5068459;28;20060;-65
2023/07/05 09:49:22;;;;;;;3.10;1.17;;;;;;;25.19;44.06;100036.47;5075295;28;20059;-65
2023/07/05 09:51:48;;;;;;;4.95;1.80;;;;;;;25.05;45.62;100024.13;5087490;28;20032;-66
2023/07/05 09:54:30;;;;;;;3.55;1.58;;;;;;;25.05;43.89;100032.31;5085298;28;20020;-66
2023/07/05 09:57:01;;;;;;;3.88;1.65;;;;;;;24.76;46.10;100033.22;5085531;28;20028;-66
2023/07/05 09:59:27;;;;;;;3.60;1.40;;;;;;;24.43;45.55;100042.53;5068494;28;20039;-66
2023/07/05 10:02:00;;;;;;;5.43;1.58;;;;;;;24.40;47.02;100042.78;5068656;28;20048;-66
2023/07/05 10:04:28;;;;;;;4.22;1.50;;;;;;;24.39;46.53;100043.78;5078840;28;20388;-65
2023/07/05 10:06:54;;;;;;;3.50;1.70;;;;;;;24.32;46.40;100051.63;5068050;28;20031;-65
2023/07/05 10:09:22;;;;;;;3.65;1.30;;;;;;;24.54;46.30;100045.16;5077411;28;20040;-66
2023/07/05 10:11:54;;;;;;;4.28;1.42;;;;;;;24.74;45.85;100044.25;5087980;28;20123;-66
2023/07/05 10:14:27;;;;;;;4.63;1.50;;;;;;;24.75;44.60;100048.69;5072877;28;20682;-65
2023/07/05 10:17:11;;;;;;;2.90;1.10;;;;;;;25.04;44.68;100060.50;5086985;28;20032;-66
2023/07/05 10:19:42;;;;;;;2.92;1.38;;;;;;;25.30;45.45;100056.28;5076541;28;20086;-67
2023/07/05 10:22:15;;;;;;;3.85;1.50;;;;;;;25.36;43.10;100060.31;5072027;28;20126;-67
2023/07/05 10:24:50;;;;;;;2.90;1.20;;;;;;;25.61;42.66;100054.28;5074608;28;20069;-66
2023/07/05 10:27:19;;;;;;;4.00;1.10;;;;;;;25.29;42.61;100057.25;5069738;28;20036;-66
2023/07/05 10:29:49;;;;;;;5.88;1.40;;;;;;;25.72;41.91;100055.00;5073218;28;20020;-66
2023/07/05 10:32:19;;;;;;;5.43;1.73;;;;;;;25.82;41.48;100061.31;5072277;28;20036;-66
2023/07/05 10:34:49;;;;;;;4.28;1.25;;;;;;;25.83;40.85;100057.56;5067970;28;20373;-66
2023/07/05 10:37:36;;;;;;;2.97;1.05;;;;;;;25.88;43.95;100060.72;5076236;28;20028;-66
2023/07/05 10:40:04;;;;;;;3.33;1.20;;;;;;;25.58;42.20;100050.00;5084667;28;20038;-65
2023/07/05 10:42:30;;;;;;;4.13;1.25;;;;;;;25.57;42.78;100059.16;5072180;28;20032;-66
2023/07/05 10:44:56;;;;;;;4.82;1.70;;;;;;;25.51;42.34;100057.03;5070970;28;20085;-66
2023/07/05 10:47:22;;;;;;;4.47;1.77;;;;;;;25.69;42.18;100057.16;5069317;28;20017;-66
2023/07/05 10:49:52;;;;;;;3.65;1.30;;;;;;;25.81;43.64;100061.44;5075053;28;20055;-66
2023/07/05 10:52:19;;;;;;;4.20;1.35;;;;;;;25.84;41.02;100059.31;5081787;28;20537;-66
2023/07/05 10:54:53;;;;;;;3.30;1.33;;;;;;;25.47;41.25;100052.84;5076756;28;20027;-65
2023/07/05 10:57:29;;;;;;;3.20;1.05;;;;;;;25.34;41.41;100054.09;5074870;28;20029;-65
2023/07/05 11:00:23;;;;;;;3.08;1.67;;;;;;;25.70;43.57;100058.88;5071130;28;20020;-65
2023/07/05 11:03:03;;;;;;;3.15;1.20;;;;;;;25.91;41.58;100052.25;5063786;28;20052;-65
2023/07/05 11:05:43;;;;;;;3.13;1.20;;;;;;;26.34;40.42;100045.44;5073178;28;20033;-66
2023/07/05 11:08:25;;;;;;;2.25;0.90;;;;;;;26.88;40.05;100048.22;5068965;28;20020;-66
2023/07/05 11:10:55;;;;;;;4.53;1.10;;;;;;;27.59;38.24;100041.84;5085779;28;20603;-66
2023/07/05 11:13:20;;;;;;;3.35;1.30;;;;;;;28.14;37.63;100045.22;5086263;28;20012;-66
2023/07/05 11:15:46;;;;;;;3.40;0.90;;;;;;;28.39;36.00;100050.69;5085854;28;20095;-66
2023/07/05 11:18:18;;;;;;;2.70;0.80;;;;;;;28.29;36.64;100046.34;5072778;28;20220;-66
2023/07/05 11:20:53;;;;;;;2.30;0.95;;;;;;;28.16;36.46;100045.91;5085762;28;20408;-66
2023/07/05 11:23:43;;;;;;;4.57;1.08;;;;;;;28.18;36.27;100043.88;5085691;28;20020;-66
2023/07/05 11:26:10;;;;;;;2.97;1.15;;;;;;;28.24;37.79;100045.97;5074814;28;20861;-65
2023/07/05 11:28:41;;;;;;;4.40;1.00;;;;;;;28.55;35.86;100044.47;5078423;28;20089;-66
2023/07/05 11:31:29;;;;;;;3.30;0.88;;;;;;;28.83;35.67;100042.38;5071436;28;20028;-66
2023/07/05 11:34:20;;;;;;;4.60;1.15;;;;;;;28.79;34.63;100030.91;5072392;28;20017;-66
2023/07/05 11:36:51;;;;;;;2.63;0.93;;;;;;;29.08;34.75;100030.50;5043135;28;20431;-65